Portada
METAR-TAF:

METAR-TAF

Aeropuertos :

Aeropuerto de Pointe-Noire

Pointe-Noire, Congo

latitud: 04-49S, longitud: 011-54E, altitud: 17 m

Observación

El informe se hizo hace 30 minutos, a las 17:00 UTC
Viento 6 kt del oeste-suroeste, variando entre sur-suroeste y oeste
Temperatura 28°C
Humedad 74%
Presión 1008 hPa
Visibilidad 10 km o más
Escasas nubes a una altura de 1500 ft

METAR: FCPP 111700Z 24006KT 210V280 9999 FEW015 28/23 Q1008 NOSIG

Hora: 18:30 (17:30 UTC)

Pronóstico

El informe se hizo hace 30 minutos, a las 17:00 UTC
Pronóstico válido del 11 a las 18 UTC al 12 a las 18 UTC
Viento 5 kt del suroeste
Visibilidad: 9000 m
Nubes dispersas a una altura de 1800 ft
Evolucionando progresivamente
del 12 a las 12 UTC al 12 a las 14 UTC
Nubes dispersas a una altura de 2000 ft
Escasas nubes a una altura de 3000 ft, Cumulonimbus.

TAF: FCPP 111700Z 1118/1218 22005KT 9000 SCT018 BECMG 1212/1214 SCT020 FEW030CB

Observaciones y pronósticos meteorológicos de más de 4000 aeropuertos (mensajes METAR y TAF).

Los puntos amarillos y rojos representan las estaciones disponibles.

Ponga el ratón en el punto deseado para ver el nombre de la estación.

Haga clic para ver las observaciones y los pronósticos meteorológicos.

Para cambiar el mapa : haga clic en los botones verdes con una cruz de color negro para hacer un zoom, en el botón verde con un guión para alejar o en las flechas verdes para mapas adyacentes.


METAR-TAF: